ADDS TAF Board (Experimental) INFO Settings
IDs: Format: Expanded Condensed

KBOS - Boston/Logan Intl, MA, US

Issued at 1723 UTC 28 May 2015
Updated at: 2006 UTC 28 May 2015
Time1954Z 28/21Z 28/22Z 28/23Z 29/00Z 29/01Z 29/02Z 29/03Z 29/04Z 29/05Z 29/06Z 29/07Z 29/08Z 29/09Z
Type OBS PRVL PRVL PRVL PRVL PRVL PRVL PRVL PRVL PRVL PRVL PRVL PRVL PRVL
VIS 10 >6 >6 >6 >6 >6 >6 >6 >6 >6 >6 >6 >6 >6
CIG 160 150 150 150 50 50 -- -- -- -- -- -- -- --
Cover BKN BKN BKN BKN BKN BKN SCT SCT SCT SCT SCT SCT SCT SCT
FltCat VFR VFR VFR VFR VFR VFR VFR VFR VFR VFR VFR VFR VFR VFR
WX -- VCTS VCTS VCTS -- -- -- -- -- -- -- -- -- --
WDir 190 230 230 230 260 260 270 270 270 270 270 270 270 270
WSpd 15 14 14 14 10 10 8 8 8 8 8 8 8 8
WGst -- -- -- -- -- -- -- -- -- -- -- -- -- --
R04/22
XWnd -3 7 7 7 9 9 8 8 8 8 8 8 8 8
HWnd -15 -12 -12 -12 -5 -5 -3 -3 -3 -3 -3 -3 -3 -3
R09/27
XWnd -14 -6 -6 -6 1 1 2 2 2 2 2 2 2 2
HWnd -6 -12 -12 -12 -10 -10 -8 -8 -8 -8 -8 -8 -8 -8
R14/32
XWnd -14 -14 -14 -14 -7 -7 -5 -5 -5 -5 -5 -5 -5 -5
HWnd 6 -4 -4 -4 -7 -7 -7 -7 -7 -7 -7 -7 -7 -7
R15/33
XWnd -12 -14 -14 -14 -8 -8 -6 -6 -6 -6 -6 -6 -6 -6
HWnd 9 -1 -1 -1 -6 -6 -6 -6 -6 -6 -6 -6 -6 -6

NOTE: TEMPO conditions in [brackets]. Keep in mind TEMPO conditions might be better (lower impact) than prevailing conditions.

Raw TAF
KBOS 281723Z 2818/2924 20015G25KT P6SM SCT150
  FM282100 23014KT P6SM VCTS SCT050 BKN150CB
  FM290000 26010KT P6SM BKN050
  FM290200 27008KT P6SM SCT250
  FM291100 36006KT P6SM FEW250
  FM291400 09007KT P6SM SCT250


Raw METAR
KBOS 281954Z 19015KT 10SM FEW035 BKN160 BKN250 28/19 A3005 RMK AO2 SLP174 T02780189
KBOS 281854Z 20016G23KT 10SM FEW035 SCT160 BKN250 30/19 A3005 RMK AO2 SLP175 T03000189
KBOS 281754Z 21015G22KT 10SM FEW035 SCT160 SCT250 29/19 A3007 RMK AO2 SLP183 MDT CU N T02940189 10294 20206 58019

METAR Board
Radar Display
Forecast Discussion

TAF Board Legend

Potential Impact
Threat None Slight Moderate High
Visibility (sm) ≥5.1 5.1>X≥3 3>X≥1 <1
Ceiling (100 ft) ≥30.1 30.1>X≥10 10>X≥5 <5
Wind Speed (kt) <10 10≤X<20 20≤X<30 ≥30
Wind Gust (kt) <15 15≤X<25 25≤X<35 ≥35
Weather No Wx Reported VCTS,-TS,-FZRA,SN TS,FZRA +TS,+FZRA,+SN